createdAt,value
2023-03-22T06:13:38.115Z,100379.37
2023-03-22T06:18:40.339Z,100371.88
2023-03-22T06:23:43.680Z,100364.09
2023-03-22T06:28:45.986Z,100382.34
2023-03-22T06:33:48.105Z,100400.69
2023-03-22T06:38:50.209Z,100402.75
2023-03-22T06:43:52.352Z,100394.53
2023-03-22T06:48:54.442Z,100394.75
2023-03-22T06:53:56.509Z,100407.66
2023-03-22T06:58:58.661Z,100408.47
2023-03-22T07:04:01.218Z,100394.19
2023-03-22T07:09:03.559Z,100405.28
2023-03-22T07:14:05.894Z,100415.66
2023-03-22T07:19:08.098Z,100397.00
2023-03-22T07:24:12.030Z,100416.19
2023-03-22T07:29:14.178Z,100434.34
2023-03-22T07:34:17.118Z,100419.50
2023-03-22T07:39:19.164Z,100415.38
2023-03-22T07:44:21.897Z,100422.28
2023-03-22T07:49:24.125Z,100427.53
2023-03-22T07:54:33.443Z,100415.31
2023-03-22T07:59:39.186Z,100420.28
2023-03-22T08:04:41.987Z,100410.22
2023-03-22T08:09:44.824Z,100399.84
2023-03-22T08:14:50.554Z,100394.41
2023-03-22T08:19:54.439Z,100407.72
2023-03-22T08:24:56.589Z,100405.22
2023-03-22T08:29:58.826Z,100418.09
2023-03-22T08:35:00.938Z,100422.47
2023-03-22T08:40:06.654Z,100409.56
2023-03-22T08:45:10.363Z,100408.19
2023-03-22T08:50:12.654Z,100419.84
2023-03-22T08:55:17.480Z,100416.87
2023-03-22T09:00:19.689Z,100418.19
2023-03-22T09:05:21.866Z,100417.13
2023-03-22T09:10:24.257Z,100432.22
2023-03-22T09:15:26.445Z,100435.12
2023-03-22T09:20:28.512Z,100420.37
2023-03-22T09:25:30.654Z,100408.91
2023-03-22T09:30:32.688Z,100420.16
2023-03-22T09:35:34.808Z,100402.41
2023-03-22T09:40:46.625Z,100412.34
2023-03-22T09:45:51.185Z,100400.16
2023-03-22T09:50:55.335Z,100404.28
2023-03-22T09:55:57.476Z,100382.50
2023-03-22T10:01:18.480Z,100393.50
2023-03-22T10:06:26.072Z,100386.66
2023-03-22T10:11:46.462Z,100391.41
2023-03-22T10:16:50.509Z,100391.78
2023-03-22T10:21:55.528Z,100381.91
2023-03-22T10:26:57.661Z,100393.66
2023-03-22T10:32:29.446Z,100375.59
2023-03-22T10:37:34.416Z,100384.59
2023-03-22T10:42:38.962Z,100374.00
2023-03-22T10:47:47.261Z,100393.44
2023-03-22T10:53:04.555Z,100378.00
2023-03-22T10:58:14.603Z,100382.38
2023-03-22T11:03:30.761Z,100378.28
2023-03-22T11:08:39.554Z,100373.19
2023-03-22T11:13:41.966Z,100362.31
2023-03-22T11:18:44.665Z,100359.88
2023-03-22T11:23:59.826Z,100358.22
2023-03-22T11:29:07.779Z,100345.69
2023-03-22T11:34:17.678Z,100340.22
2023-03-22T11:39:21.387Z,100333.66
2023-03-22T11:44:27.846Z,100336.63
2023-03-22T11:49:45.445Z,100325.59
2023-03-22T11:54:47.868Z,100316.41
2023-03-22T12:00:11.486Z,100318.47
2023-03-22T12:05:22.615Z,100328.00
2023-03-22T12:10:40.156Z,100333.13
2023-03-22T12:15:48.953Z,100336.75
2023-03-22T12:20:56.486Z,100335.72
2023-03-22T12:26:06.480Z,100335.41
2023-03-22T12:31:21.758Z,100319.94
2023-03-22T12:36:49.829Z,100311.91
2023-03-22T12:41:56.091Z,100312.78
2023-03-22T12:47:10.777Z,100312.53
2023-03-22T12:52:26.415Z,100318.69
2023-03-22T12:57:32.413Z,100310.47
2023-03-22T13:02:35.803Z,100300.81
2023-03-22T13:08:03.199Z,100301.25
2023-03-22T13:13:24.295Z,100298.91
2023-03-22T13:18:35.699Z,100287.44
2023-03-22T13:24:20.898Z,100276.41
2023-03-22T13:29:38.245Z,100272.06
2023-03-22T13:34:52.780Z,100273.06
2023-03-22T13:39:54.937Z,100266.75
2023-03-22T13:45:03.417Z,100275.31
2023-03-22T13:50:16.033Z,100259.62
2023-03-22T13:56:01.050Z,100253.66
2023-03-22T14:01:06.998Z,100251.91
2023-03-22T14:06:15.231Z,100247.34
2023-03-22T14:11:26.461Z,100242.50
2023-03-22T14:16:31.583Z,100249.16
2023-03-22T14:21:44.126Z,100235.28
